sensor_id;sensor_type;location;lat;lon;timestamp;temperature;humidity
314;DHT22;143;51.634;7.112;2024-02-23T00:00:25;6.20;1.00
314;DHT22;143;51.634;7.112;2024-02-23T00:02:50;5.70;1.00
314;DHT22;143;51.634;7.112;2024-02-23T00:05:16;6.00;1.00
314;DHT22;143;51.634;7.112;2024-02-23T00:07:41;5.80;1.00
314;DHT22;143;51.634;7.112;2024-02-23T00:10:07;5.70;1.00
314;DHT22;143;51.634;7.112;2024-02-23T00:12:33;5.60;1.00
314;DHT22;143;51.634;7.112;2024-02-23T00:14:58;5.60;1.00
314;DHT22;143;51.634;7.112;2024-02-23T00:17:24;5.50;1.00
314;DHT22;143;51.634;7.112;2024-02-23T00:19:49;5.30;1.00
314;DHT22;143;51.634;7.112;2024-02-23T00:22:15;5.40;1.00
314;DHT22;143;51.634;7.112;2024-02-23T00:24:40;5.40;1.00
314;DHT22;143;51.634;7.112;2024-02-23T00:27:06;5.40;1.00
314;DHT22;143;51.634;7.112;2024-02-23T00:29:32;5.40;1.00
314;DHT22;143;51.634;7.112;2024-02-23T00:31:57;5.40;1.00
314;DHT22;143;51.634;7.112;2024-02-23T00:34:23;5.30;1.00
314;DHT22;143;51.634;7.112;2024-02-23T00:36:48;5.30;1.00
314;DHT22;143;51.634;7.112;2024-02-23T00:39:14;5.30;1.00
314;DHT22;143;51.634;7.112;2024-02-23T00:41:39;5.30;1.00
314;DHT22;143;51.634;7.112;2024-02-23T00:44:05;5.40;1.00
314;DHT22;143;51.634;7.112;2024-02-23T00:46:31;5.20;1.00
314;DHT22;143;51.634;7.112;2024-02-23T00:48:57;5.10;1.00
314;DHT22;143;51.634;7.112;2024-02-23T00:51:23;5.40;1.00
314;DHT22;143;51.634;7.112;2024-02-23T00:53:48;5.20;1.00
314;DHT22;143;51.634;7.112;2024-02-23T00:56:14;5.30;1.00
314;DHT22;143;51.634;7.112;2024-02-23T00:58:39;5.20;1.00
314;DHT22;143;51.634;7.112;2024-02-23T01:01:05;5.30;1.00
314;DHT22;143;51.634;7.112;2024-02-23T01:03:31;5.20;1.00
314;DHT22;143;51.634;7.112;2024-02-23T01:05:57;5.30;1.00
314;DHT22;143;51.634;7.112;2024-02-23T01:08:22;5.10;1.00
314;DHT22;143;51.634;7.112;2024-02-23T01:10:48;5.60;1.00
314;DHT22;143;51.634;7.112;2024-02-23T01:13:13;5.50;1.00
314;DHT22;143;51.634;7.112;2024-02-23T01:15:39;5.30;1.00
314;DHT22;143;51.634;7.112;2024-02-23T01:18:05;5.30;1.00
314;DHT22;143;51.634;7.112;2024-02-23T01:20:34;5.50;1.00
314;DHT22;143;51.634;7.112;2024-02-23T01:23:00;5.40;1.00
314;DHT22;143;51.634;7.112;2024-02-23T01:25:25;5.50;1.00
314;DHT22;143;51.634;7.112;2024-02-23T01:27:51;5.30;1.00
314;DHT22;143;51.634;7.112;2024-02-23T01:30:17;5.40;1.00
314;DHT22;143;51.634;7.112;2024-02-23T01:32:44;5.50;1.00
314;DHT22;143;51.634;7.112;2024-02-23T01:35:10;5.50;1.00
314;DHT22;143;51.634;7.112;2024-02-23T01:37:35;5.50;1.00
314;DHT22;143;51.634;7.112;2024-02-23T01:40:01;5.50;1.00
314;DHT22;143;51.634;7.112;2024-02-23T01:42:27;5.70;1.00
314;DHT22;143;51.634;7.112;2024-02-23T01:44:52;5.40;1.00
314;DHT22;143;51.634;7.112;2024-02-23T01:47:18;5.70;1.00
314;DHT22;143;51.634;7.112;2024-02-23T01:49:45;5.50;1.00
314;DHT22;143;51.634;7.112;2024-02-23T01:52:18;5.60;1.00
314;DHT22;143;51.634;7.112;2024-02-23T01:54:44;5.70;1.00
314;DHT22;143;51.634;7.112;2024-02-23T01:57:10;5.50;1.00
314;DHT22;143;51.634;7.112;2024-02-23T01:59:38;5.50;1.00
314;DHT22;143;51.634;7.112;2024-02-23T02:02:04;5.80;1.00
314;DHT22;143;51.634;7.112;2024-02-23T02:04:29;5.80;1.00
314;DHT22;143;51.634;7.112;2024-02-23T02:06:56;5.80;1.00
314;DHT22;143;51.634;7.112;2024-02-23T02:09:22;5.80;1.00
314;DHT22;143;51.634;7.112;2024-02-23T02:11:48;5.90;1.00
314;DHT22;143;51.634;7.112;2024-02-23T02:14:17;5.70;1.00
314;DHT22;143;51.634;7.112;2024-02-23T02:16:43;5.70;1.00
314;DHT22;143;51.634;7.112;2024-02-23T02:19:10;5.60;1.00
314;DHT22;143;51.634;7.112;2024-02-23T02:21:36;5.90;1.00
314;DHT22;143;51.634;7.112;2024-02-23T02:24:02;5.70;1.00
314;DHT22;143;51.634;7.112;2024-02-23T02:26:28;5.90;1.00
314;DHT22;143;51.634;7.112;2024-02-23T02:28:54;5.80;1.00
314;DHT22;143;51.634;7.112;2024-02-23T02:31:19;5.80;1.00
314;DHT22;143;51.634;7.112;2024-02-23T02:33:45;5.80;1.00
314;DHT22;143;51.634;7.112;2024-02-23T02:36:10;5.90;1.00
314;DHT22;143;51.634;7.112;2024-02-23T02:38:37;5.90;1.00
314;DHT22;143;51.634;7.112;2024-02-23T02:41:03;5.80;99.90
314;DHT22;143;51.634;7.112;2024-02-23T02:43:28;6.10;99.90
314;DHT22;143;51.634;7.112;2024-02-23T02:45:54;5.80;99.90
314;DHT22;143;51.634;7.112;2024-02-23T02:48:19;5.90;99.90
314;DHT22;143;51.634;7.112;2024-02-23T02:50:45;5.80;99.90
314;DHT22;143;51.634;7.112;2024-02-23T02:53:10;5.70;99.90
314;DHT22;143;51.634;7.112;2024-02-23T02:55:39;6.00;99.90
314;DHT22;143;51.634;7.112;2024-02-23T02:58:05;6.00;99.90
314;DHT22;143;51.634;7.112;2024-02-23T03:00:30;6.10;99.90
314;DHT22;143;51.634;7.112;2024-02-23T03:02:57;5.70;99.90
314;DHT22;143;51.634;7.112;2024-02-23T03:05:22;5.90;99.90
314;DHT22;143;51.634;7.112;2024-02-23T03:07:48;5.90;99.90
314;DHT22;143;51.634;7.112;2024-02-23T03:10:13;6.00;99.90
314;DHT22;143;51.634;7.112;2024-02-23T03:12:39;5.80;99.90
314;DHT22;143;51.634;7.112;2024-02-23T03:15:05;5.80;99.90
314;DHT22;143;51.634;7.112;2024-02-23T03:17:31;5.80;99.90
314;DHT22;143;51.634;7.112;2024-02-23T03:19:57;5.80;99.90
314;DHT22;143;51.634;7.112;2024-02-23T03:22:23;5.90;99.90
314;DHT22;143;51.634;7.112;2024-02-23T03:24:48;5.80;99.90
314;DHT22;143;51.634;7.112;2024-02-23T03:27:14;6.00;99.90
314;DHT22;143;51.634;7.112;2024-02-23T03:29:39;5.80;99.90
314;DHT22;143;51.634;7.112;2024-02-23T03:32:05;5.90;99.90
314;DHT22;143;51.634;7.112;2024-02-23T03:34:31;5.90;99.90
314;DHT22;143;51.634;7.112;2024-02-23T03:36:57;5.80;99.90
314;DHT22;143;51.634;7.112;2024-02-23T03:39:24;5.50;99.90
314;DHT22;143;51.634;7.112;2024-02-23T03:41:49;5.60;99.90
314;DHT22;143;51.634;7.112;2024-02-23T03:44:15;5.70;99.90
314;DHT22;143;51.634;7.112;2024-02-23T03:46:40;5.60;99.90
314;DHT22;143;51.634;7.112;2024-02-23T03:49:06;5.70;99.90
314;DHT22;143;51.634;7.112;2024-02-23T03:51:31;5.70;99.90
314;DHT22;143;51.634;7.112;2024-02-23T03:54:02;5.80;99.90
314;DHT22;143;51.634;7.112;2024-02-23T03:56:28;5.60;99.90
314;DHT22;143;51.634;7.112;2024-02-23T03:58:54;5.70;99.90
314;DHT22;143;51.634;7.112;2024-02-23T04:01:19;5.90;99.90
314;DHT22;143;51.634;7.112;2024-02-23T04:03:45;5.50;99.90
314;DHT22;143;51.634;7.112;2024-02-23T04:06:10;5.60;99.90
314;DHT22;143;51.634;7.112;2024-02-23T04:08:36;5.80;99.90
314;DHT22;143;51.634;7.112;2024-02-23T04:11:01;5.80;99.90
314;DHT22;143;51.634;7.112;2024-02-23T04:13:27;5.90;99.90
314;DHT22;143;51.634;7.112;2024-02-23T04:15:52;5.70;99.90
314;DHT22;143;51.634;7.112;2024-02-23T04:18:18;5.80;99.90
314;DHT22;143;51.634;7.112;2024-02-23T04:20:43;5.80;99.90
314;DHT22;143;51.634;7.112;2024-02-23T04:23:09;5.80;99.90
314;DHT22;143;51.634;7.112;2024-02-23T04:25:34;5.80;99.90
314;DHT22;143;51.634;7.112;2024-02-23T04:28:00;5.90;99.90
314;DHT22;143;51.634;7.112;2024-02-23T04:30:25;5.80;99.90
314;DHT22;143;51.634;7.112;2024-02-23T04:32:51;5.90;99.90
314;DHT22;143;51.634;7.112;2024-02-23T04:35:16;5.80;99.90
314;DHT22;143;51.634;7.112;2024-02-23T04:37:45;5.80;99.90
314;DHT22;143;51.634;7.112;2024-02-23T04:40:11;5.80;99.90
314;DHT22;143;51.634;7.112;2024-02-23T04:42:37;5.60;99.90
314;DHT22;143;51.634;7.112;2024-02-23T04:45:04;6.00;99.90
314;DHT22;143;51.634;7.112;2024-02-23T04:47:30;5.70;99.90
314;DHT22;143;51.634;7.112;2024-02-23T04:49:55;5.80;99.90
314;DHT22;143;51.634;7.112;2024-02-23T04:52:21;6.00;99.90
314;DHT22;143;51.634;7.112;2024-02-23T04:54:46;6.10;99.90
314;DHT22;143;51.634;7.112;2024-02-23T04:57:12;6.10;99.90
314;DHT22;143;51.634;7.112;2024-02-23T04:59:37;5.70;99.90
314;DHT22;143;51.634;7.112;2024-02-23T05:02:03;5.70;99.90
314;DHT22;143;51.634;7.112;2024-02-23T05:04:28;6.00;99.90
314;DHT22;143;51.634;7.112;2024-02-23T05:06:54;5.80;99.90
314;DHT22;143;51.634;7.112;2024-02-23T05:09:19;6.00;99.90
314;DHT22;143;51.634;7.112;2024-02-23T05:11:46;6.10;99.90
314;DHT22;143;51.634;7.112;2024-02-23T05:14:12;5.90;99.90
314;DHT22;143;51.634;7.112;2024-02-23T05:16:38;5.80;99.90
314;DHT22;143;51.634;7.112;2024-02-23T05:19:03;5.80;99.90
314;DHT22;143;51.634;7.112;2024-02-23T05:21:29;5.70;99.90
314;DHT22;143;51.634;7.112;2024-02-23T05:23:54;5.90;99.90
314;DHT22;143;51.634;7.112;2024-02-23T05:26:20;6.00;99.90
314;DHT22;143;51.634;7.112;2024-02-23T05:28:45;5.80;99.90
314;DHT22;143;51.634;7.112;2024-02-23T05:31:11;6.00;99.90
314;DHT22;143;51.634;7.112;2024-02-23T05:33:37;5.70;99.90
314;DHT22;143;51.634;7.112;2024-02-23T05:36:04;5.70;99.90
314;DHT22;143;51.634;7.112;2024-02-23T05:38:30;6.10;99.90
314;DHT22;143;51.634;7.112;2024-02-23T05:40:56;6.10;99.90
314;DHT22;143;51.634;7.112;2024-02-23T05:43:22;6.00;99.90
314;DHT22;143;51.634;7.112;2024-02-23T05:45:47;6.10;99.90
314;DHT22;143;51.634;7.112;2024-02-23T05:48:13;6.00;99.90
314;DHT22;143;51.634;7.112;2024-02-23T05:50:39;5.90;99.90
314;DHT22;143;51.634;7.112;2024-02-23T05:53:04;6.10;99.90
314;DHT22;143;51.634;7.112;2024-02-23T05:55:30;6.00;99.90
314;DHT22;143;51.634;7.112;2024-02-23T05:57:56;5.80;99.90
314;DHT22;143;51.634;7.112;2024-02-23T06:00:21;5.70;99.90
314;DHT22;143;51.634;7.112;2024-02-23T06:02:47;6.00;99.90
314;DHT22;143;51.634;7.112;2024-02-23T06:05:13;6.00;99.90
314;DHT22;143;51.634;7.112;2024-02-23T06:07:38;6.00;99.90
314;DHT22;143;51.634;7.112;2024-02-23T06:10:05;6.00;99.90
314;DHT22;143;51.634;7.112;2024-02-23T06:12:31;5.80;99.90
314;DHT22;143;51.634;7.112;2024-02-23T06:14:56;5.60;99.90
314;DHT22;143;51.634;7.112;2024-02-23T06:17:23;5.80;99.90
314;DHT22;143;51.634;7.112;2024-02-23T06:19:49;5.80;99.90
314;DHT22;143;51.634;7.112;2024-02-23T06:22:15;5.80;99.90
314;DHT22;143;51.634;7.112;2024-02-23T06:24:49;5.60;99.90
314;DHT22;143;51.634;7.112;2024-02-23T06:27:14;6.00;99.90
314;DHT22;143;51.634;7.112;2024-02-23T06:29:40;5.90;99.90
314;DHT22;143;51.634;7.112;2024-02-23T06:32:05;6.00;99.90
314;DHT22;143;51.634;7.112;2024-02-23T06:34:31;5.90;99.90
314;DHT22;143;51.634;7.112;2024-02-23T06:36:57;6.00;99.90
314;DHT22;143;51.634;7.112;2024-02-23T06:39:23;5.80;99.90
314;DHT22;143;51.634;7.112;2024-02-23T06:41:48;5.70;99.90
314;DHT22;143;51.634;7.112;2024-02-23T06:44:14;5.80;99.90
314;DHT22;143;51.634;7.112;2024-02-23T06:46:39;5.80;99.90
314;DHT22;143;51.634;7.112;2024-02-23T06:49:06;5.90;99.90
314;DHT22;143;51.634;7.112;2024-02-23T06:51:32;6.00;99.90
314;DHT22;143;51.634;7.112;2024-02-23T06:53:57;6.10;99.90
314;DHT22;143;51.634;7.112;2024-02-23T06:56:23;6.00;99.90
314;DHT22;143;51.634;7.112;2024-02-23T06:58:48;5.70;99.90
314;DHT22;143;51.634;7.112;2024-02-23T07:01:14;6.20;99.90
314;DHT22;143;51.634;7.112;2024-02-23T07:03:40;6.00;99.90
314;DHT22;143;51.634;7.112;2024-02-23T07:06:08;6.20;99.90
314;DHT22;143;51.634;7.112;2024-02-23T07:08:35;6.10;99.90
314;DHT22;143;51.634;7.112;2024-02-23T07:11:01;6.00;99.90
314;DHT22;143;51.634;7.112;2024-02-23T07:13:26;6.10;99.90
314;DHT22;143;51.634;7.112;2024-02-23T07:15:52;5.90;99.90
314;DHT22;143;51.634;7.112;2024-02-23T07:18:17;5.90;99.90
314;DHT22;143;51.634;7.112;2024-02-23T07:20:43;6.10;99.90
314;DHT22;143;51.634;7.112;2024-02-23T07:23:09;6.10;99.90
314;DHT22;143;51.634;7.112;2024-02-23T07:25:35;6.00;99.90
314;DHT22;143;51.634;7.112;2024-02-23T07:28:00;6.30;99.90
314;DHT22;143;51.634;7.112;2024-02-23T07:30:26;6.30;99.90
314;DHT22;143;51.634;7.112;2024-02-23T07:32:51;6.20;99.90
314;DHT22;143;51.634;7.112;2024-02-23T07:35:17;6.20;99.90
314;DHT22;143;51.634;7.112;2024-02-23T07:37:42;6.60;99.90
314;DHT22;143;51.634;7.112;2024-02-23T07:40:08;6.40;99.90
314;DHT22;143;51.634;7.112;2024-02-23T07:42:34;6.70;99.90
314;DHT22;143;51.634;7.112;2024-02-23T07:45:06;6.40;99.90
314;DHT22;143;51.634;7.112;2024-02-23T07:47:32;6.60;99.90
314;DHT22;143;51.634;7.112;2024-02-23T07:49:58;6.70;99.90
314;DHT22;143;51.634;7.112;2024-02-23T07:52:24;6.60;99.90
314;DHT22;143;51.634;7.112;2024-02-23T07:54:54;6.50;99.90
314;DHT22;143;51.634;7.112;2024-02-23T07:57:19;6.60;99.90
314;DHT22;143;51.634;7.112;2024-02-23T07:59:45;6.60;99.90
314;DHT22;143;51.634;7.112;2024-02-23T08:02:11;6.70;99.90
314;DHT22;143;51.634;7.112;2024-02-23T08:04:37;6.60;99.20
314;DHT22;143;51.634;7.112;2024-02-23T08:07:03;6.50;99.90
314;DHT22;143;51.634;7.112;2024-02-23T08:09:29;6.90;99.20
314;DHT22;143;51.634;7.112;2024-02-23T08:11:54;6.80;99.90
314;DHT22;143;51.634;7.112;2024-02-23T08:14:20;6.90;99.90
314;DHT22;143;51.634;7.112;2024-02-23T08:16:45;6.90;92.40
314;DHT22;143;51.634;7.112;2024-02-23T08:19:11;7.00;99.90
314;DHT22;143;51.634;7.112;2024-02-23T08:21:37;6.70;92.50
314;DHT22;143;51.634;7.112;2024-02-23T08:24:02;6.70;87.60
314;DHT22;143;51.634;7.112;2024-02-23T08:26:28;7.00;92.90
314;DHT22;143;51.634;7.112;2024-02-23T08:28:54;6.90;93.60
314;DHT22;143;51.634;7.112;2024-02-23T08:31:19;7.10;96.50
314;DHT22;143;51.634;7.112;2024-02-23T08:33:45;7.10;86.40
314;DHT22;143;51.634;7.112;2024-02-23T08:36:12;7.30;76.60
314;DHT22;143;51.634;7.112;2024-02-23T08:38:37;7.10;47.90
314;DHT22;143;51.634;7.112;2024-02-23T08:41:03;7.00;42.60
314;DHT22;143;51.634;7.112;2024-02-23T08:43:29;7.20;29.50
314;DHT22;143;51.634;7.112;2024-02-23T08:45:54;7.10;21.90
314;DHT22;143;51.634;7.112;2024-02-23T08:48:20;7.20;32.50
314;DHT22;143;51.634;7.112;2024-02-23T08:50:45;7.20;25.10
314;DHT22;143;51.634;7.112;2024-02-23T08:53:11;7.40;22.60
314;DHT22;143;51.634;7.112;2024-02-23T08:55:36;7.30;4.80
314;DHT22;143;51.634;7.112;2024-02-23T08:58:02;7.60;14.50
314;DHT22;143;51.634;7.112;2024-02-23T09:00:27;7.60;10.20
314;DHT22;143;51.634;7.112;2024-02-23T09:02:53;7.20;1.00
314;DHT22;143;51.634;7.112;2024-02-23T09:05:19;7.30;1.00
314;DHT22;143;51.634;7.112;2024-02-23T09:07:46;7.20;1.00
314;DHT22;143;51.634;7.112;2024-02-23T09:10:11;7.20;1.00
314;DHT22;143;51.634;7.112;2024-02-23T09:12:37;7.20;1.00
314;DHT22;143;51.634;7.112;2024-02-23T09:15:03;7.10;1.00
314;DHT22;143;51.634;7.112;2024-02-23T09:17:28;6.90;1.00
314;DHT22;143;51.634;7.112;2024-02-23T09:19:54;6.80;11.30
314;DHT22;143;51.634;7.112;2024-02-23T09:22:19;6.90;20.20
314;DHT22;143;51.634;7.112;2024-02-23T09:24:45;7.00;29.30
314;DHT22;143;51.634;7.112;2024-02-23T09:27:11;6.90;16.00
314;DHT22;143;51.634;7.112;2024-02-23T09:29:37;6.80;15.10
314;DHT22;143;51.634;7.112;2024-02-23T09:32:02;7.10;4.80
314;DHT22;143;51.634;7.112;2024-02-23T09:34:29;7.10;9.70
314;DHT22;143;51.634;7.112;2024-02-23T09:36:55;7.30;7.80
314;DHT22;143;51.634;7.112;2024-02-23T09:39:20;7.30;6.70
314;DHT22;143;51.634;7.112;2024-02-23T09:41:50;7.40;3.60
314;DHT22;143;51.634;7.112;2024-02-23T09:44:18;7.20;1.00
314;DHT22;143;51.634;7.112;2024-02-23T09:46:43;7.30;1.00
314;DHT22;143;51.634;7.112;2024-02-23T09:49:11;7.10;1.00
314;DHT22;143;51.634;7.112;2024-02-23T09:51:38;7.40;1.00
314;DHT22;143;51.634;7.112;2024-02-23T09:54:04;7.40;1.00
314;DHT22;143;51.634;7.112;2024-02-23T09:56:30;7.30;1.00
314;DHT22;143;51.634;7.112;2024-02-23T09:58:58;7.10;1.00
314;DHT22;143;51.634;7.112;2024-02-23T10:01:28;7.50;1.00
314;DHT22;143;51.634;7.112;2024-02-23T10:03:57;7.20;1.00
314;DHT22;143;51.634;7.112;2024-02-23T10:06:26;7.10;1.00
314;DHT22;143;51.634;7.112;2024-02-23T10:08:52;7.40;1.00
314;DHT22;143;51.634;7.112;2024-02-23T10:11:22;7.50;1.00
314;DHT22;143;51.634;7.112;2024-02-23T10:13:48;7.50;1.00
314;DHT22;143;51.634;7.112;2024-02-23T10:16:18;7.40;1.00
314;DHT22;143;51.634;7.112;2024-02-23T10:18:46;7.40;1.00
314;DHT22;143;51.634;7.112;2024-02-23T10:21:12;7.40;1.00
314;DHT22;143;51.634;7.112;2024-02-23T10:23:38;7.40;1.00
314;DHT22;143;51.634;7.112;2024-02-23T10:26:05;7.50;1.00
314;DHT22;143;51.634;7.112;2024-02-23T10:28:31;7.40;1.00
314;DHT22;143;51.634;7.112;2024-02-23T10:30:57;7.70;1.00
314;DHT22;143;51.634;7.112;2024-02-23T10:33:23;7.90;1.00
314;DHT22;143;51.634;7.112;2024-02-23T10:35:55;7.70;1.00
314;DHT22;143;51.634;7.112;2024-02-23T10:38:22;7.80;1.00
314;DHT22;143;51.634;7.112;2024-02-23T10:40:49;7.50;1.00
314;DHT22;143;51.634;7.112;2024-02-23T10:43:19;7.70;1.00
314;DHT22;143;51.634;7.112;2024-02-23T10:45:45;7.90;1.00
314;DHT22;143;51.634;7.112;2024-02-23T10:48:11;7.70;1.00
314;DHT22;143;51.634;7.112;2024-02-23T10:50:38;7.80;1.00
314;DHT22;143;51.634;7.112;2024-02-23T10:53:07;8.10;1.00
314;DHT22;143;51.634;7.112;2024-02-23T10:55:36;8.00;1.00
314;DHT22;143;51.634;7.112;2024-02-23T10:58:02;7.90;1.00
314;DHT22;143;51.634;7.112;2024-02-23T11:00:29;7.80;1.00
314;DHT22;143;51.634;7.112;2024-02-23T11:02:55;7.90;1.00
314;DHT22;143;51.634;7.112;2024-02-23T11:05:21;7.80;1.00
314;DHT22;143;51.634;7.112;2024-02-23T11:07:48;7.90;1.00
314;DHT22;143;51.634;7.112;2024-02-23T11:10:15;8.20;1.00
314;DHT22;143;51.634;7.112;2024-02-23T11:12:41;7.90;1.00
314;DHT22;143;51.634;7.112;2024-02-23T11:15:07;7.90;1.00
314;DHT22;143;51.634;7.112;2024-02-23T11:17:35;8.10;1.00
314;DHT22;143;51.634;7.112;2024-02-23T11:20:04;7.90;1.00
314;DHT22;143;51.634;7.112;2024-02-23T11:22:32;8.10;1.00
314;DHT22;143;51.634;7.112;2024-02-23T11:25:06;7.90;1.00
314;DHT22;143;51.634;7.112;2024-02-23T11:27:40;8.00;1.00
314;DHT22;143;51.634;7.112;2024-02-23T11:30:09;7.90;1.00
314;DHT22;143;51.634;7.112;2024-02-23T11:32:38;8.10;1.00
314;DHT22;143;51.634;7.112;2024-02-23T11:35:06;8.20;1.00
314;DHT22;143;51.634;7.112;2024-02-23T11:37:32;8.10;1.00
314;DHT22;143;51.634;7.112;2024-02-23T11:39:59;8.30;1.00
314;DHT22;143;51.634;7.112;2024-02-23T11:42:27;8.40;1.00
314;DHT22;143;51.634;7.112;2024-02-23T11:44:53;8.20;1.00
314;DHT22;143;51.634;7.112;2024-02-23T11:47:21;8.30;1.00
314;DHT22;143;51.634;7.112;2024-02-23T11:49:47;8.20;1.00
314;DHT22;143;51.634;7.112;2024-02-23T11:52:12;8.20;1.00
314;DHT22;143;51.634;7.112;2024-02-23T11:54:38;8.20;1.00
314;DHT22;143;51.634;7.112;2024-02-23T11:57:04;8.30;1.00
314;DHT22;143;51.634;7.112;2024-02-23T11:59:30;8.30;1.00
314;DHT22;143;51.634;7.112;2024-02-23T12:01:55;8.30;1.00
314;DHT22;143;51.634;7.112;2024-02-23T12:04:21;8.30;1.00
314;DHT22;143;51.634;7.112;2024-02-23T12:06:47;8.30;1.00
314;DHT22;143;51.634;7.112;2024-02-23T12:09:13;8.30;1.00
314;DHT22;143;51.634;7.112;2024-02-23T12:11:39;8.10;1.00
314;DHT22;143;51.634;7.112;2024-02-23T12:14:05;8.10;1.00
314;DHT22;143;51.634;7.112;2024-02-23T12:16:34;8.30;1.00
314;DHT22;143;51.634;7.112;2024-02-23T12:19:03;8.10;1.00
314;DHT22;143;51.634;7.112;2024-02-23T12:21:29;8.10;1.00
314;DHT22;143;51.634;7.112;2024-02-23T12:23:54;8.40;1.00
314;DHT22;143;51.634;7.112;2024-02-23T12:26:20;8.20;1.00
314;DHT22;143;51.634;7.112;2024-02-23T12:28:46;8.10;1.00
314;DHT22;143;51.634;7.112;2024-02-23T12:31:12;8.10;1.00
314;DHT22;143;51.634;7.112;2024-02-23T12:33:38;8.30;1.00
314;DHT22;143;51.634;7.112;2024-02-23T12:36:08;8.30;1.00
314;DHT22;143;51.634;7.112;2024-02-23T12:38:35;8.10;1.00
314;DHT22;143;51.634;7.112;2024-02-23T12:41:02;8.30;1.00
314;DHT22;143;51.634;7.112;2024-02-23T12:43:28;8.30;1.00
314;DHT22;143;51.634;7.112;2024-02-23T12:45:55;8.30;1.00
314;DHT22;143;51.634;7.112;2024-02-23T12:48:22;8.40;1.00
314;DHT22;143;51.634;7.112;2024-02-23T12:50:48;8.40;1.00
314;DHT22;143;51.634;7.112;2024-02-23T12:53:36;8.30;1.00
314;DHT22;143;51.634;7.112;2024-02-23T12:56:06;8.40;1.00
314;DHT22;143;51.634;7.112;2024-02-23T12:58:36;8.40;1.00
314;DHT22;143;51.634;7.112;2024-02-23T13:01:02;8.40;1.00
314;DHT22;143;51.634;7.112;2024-02-23T13:03:28;8.40;1.00
314;DHT22;143;51.634;7.112;2024-02-23T13:05:55;8.40;1.00
314;DHT22;143;51.634;7.112;2024-02-23T13:08:21;8.30;1.00
314;DHT22;143;51.634;7.112;2024-02-23T13:10:47;8.30;1.00
314;DHT22;143;51.634;7.112;2024-02-23T13:13:13;8.10;1.00
314;DHT22;143;51.634;7.112;2024-02-23T13:15:41;8.20;1.00
314;DHT22;143;51.634;7.112;2024-02-23T13:18:06;8.10;1.00
314;DHT22;143;51.634;7.112;2024-02-23T13:20:32;8.00;1.00
314;DHT22;143;51.634;7.112;2024-02-23T13:22:57;8.00;1.00
314;DHT22;143;51.634;7.112;2024-02-23T13:25:23;8.30;1.00
314;DHT22;143;51.634;7.112;2024-02-23T13:27:48;8.30;1.00
314;DHT22;143;51.634;7.112;2024-02-23T13:30:15;8.20;1.00
314;DHT22;143;51.634;7.112;2024-02-23T13:32:41;8.10;1.00
314;DHT22;143;51.634;7.112;2024-02-23T13:35:06;8.20;1.00
314;DHT22;143;51.634;7.112;2024-02-23T13:37:34;8.30;1.00
314;DHT22;143;51.634;7.112;2024-02-23T13:40:00;8.20;1.00
314;DHT22;143;51.634;7.112;2024-02-23T13:42:25;8.20;1.00
314;DHT22;143;51.634;7.112;2024-02-23T13:44:51;8.30;1.00
314;DHT22;143;51.634;7.112;2024-02-23T13:47:16;8.20;1.00
314;DHT22;143;51.634;7.112;2024-02-23T13:49:42;8.20;1.00
314;DHT22;143;51.634;7.112;2024-02-23T13:52:08;8.30;1.00
314;DHT22;143;51.634;7.112;2024-02-23T13:54:33;8.00;1.00
314;DHT22;143;51.634;7.112;2024-02-23T13:56:59;8.30;1.00
314;DHT22;143;51.634;7.112;2024-02-23T13:59:25;8.30;1.00
314;DHT22;143;51.634;7.112;2024-02-23T14:01:50;8.30;1.00
314;DHT22;143;51.634;7.112;2024-02-23T14:04:16;8.30;1.00
314;DHT22;143;51.634;7.112;2024-02-23T14:06:42;8.30;1.00
314;DHT22;143;51.634;7.112;2024-02-23T14:09:08;8.30;1.00
314;DHT22;143;51.634;7.112;2024-02-23T14:11:34;8.50;1.00
314;DHT22;143;51.634;7.112;2024-02-23T14:13:59;8.40;1.00
314;DHT22;143;51.634;7.112;2024-02-23T14:16:25;8.30;1.00
314;DHT22;143;51.634;7.112;2024-02-23T14:18:50;8.50;1.00
314;DHT22;143;51.634;7.112;2024-02-23T14:21:16;8.60;1.00
314;DHT22;143;51.634;7.112;2024-02-23T14:23:43;8.60;1.00
314;DHT22;143;51.634;7.112;2024-02-23T14:26:09;8.60;1.00
314;DHT22;143;51.634;7.112;2024-02-23T14:28:35;8.50;1.00
314;DHT22;143;51.634;7.112;2024-02-23T14:31:00;8.50;1.00
314;DHT22;143;51.634;7.112;2024-02-23T14:33:26;8.50;1.00
314;DHT22;143;51.634;7.112;2024-02-23T14:35:52;8.50;1.00
314;DHT22;143;51.634;7.112;2024-02-23T14:38:17;8.40;1.00
314;DHT22;143;51.634;7.112;2024-02-23T14:40:43;8.60;1.00
314;DHT22;143;51.634;7.112;2024-02-23T14:43:09;8.70;1.00
314;DHT22;143;51.634;7.112;2024-02-23T14:45:35;8.60;1.00
314;DHT22;143;51.634;7.112;2024-02-23T14:48:01;8.50;1.00
314;DHT22;143;51.634;7.112;2024-02-23T14:50:27;8.80;1.00
314;DHT22;143;51.634;7.112;2024-02-23T14:52:52;8.70;1.00
314;DHT22;143;51.634;7.112;2024-02-23T14:55:19;8.70;1.00
314;DHT22;143;51.634;7.112;2024-02-23T14:57:45;8.60;1.00
314;DHT22;143;51.634;7.112;2024-02-23T15:00:11;8.90;1.00
314;DHT22;143;51.634;7.112;2024-02-23T15:02:38;8.90;1.00
314;DHT22;143;51.634;7.112;2024-02-23T15:05:05;8.90;1.00
314;DHT22;143;51.634;7.112;2024-02-23T15:07:31;8.80;1.00
314;DHT22;143;51.634;7.112;2024-02-23T15:09:57;8.80;1.00
314;DHT22;143;51.634;7.112;2024-02-23T15:12:22;9.20;1.00
314;DHT22;143;51.634;7.112;2024-02-23T15:14:49;9.20;1.00
314;DHT22;143;51.634;7.112;2024-02-23T15:17:16;8.90;1.00
314;DHT22;143;51.634;7.112;2024-02-23T15:19:41;9.00;1.00
314;DHT22;143;51.634;7.112;2024-02-23T15:22:07;9.20;1.00
314;DHT22;143;51.634;7.112;2024-02-23T15:24:34;9.20;1.00
314;DHT22;143;51.634;7.112;2024-02-23T15:27:00;9.20;1.00
314;DHT22;143;51.634;7.112;2024-02-23T15:29:25;9.40;1.00
314;DHT22;143;51.634;7.112;2024-02-23T15:31:51;9.10;1.00
314;DHT22;143;51.634;7.112;2024-02-23T15:34:16;9.20;1.00
314;DHT22;143;51.634;7.112;2024-02-23T15:36:42;9.20;1.00
314;DHT22;143;51.634;7.112;2024-02-23T15:39:08;9.20;1.00
314;DHT22;143;51.634;7.112;2024-02-23T15:41:33;9.20;1.00
314;DHT22;143;51.634;7.112;2024-02-23T15:44:00;9.30;1.00
314;DHT22;143;51.634;7.112;2024-02-23T15:46:26;9.20;1.00
314;DHT22;143;51.634;7.112;2024-02-23T15:48:52;9.20;1.00
314;DHT22;143;51.634;7.112;2024-02-23T15:51:18;9.00;1.00
314;DHT22;143;51.634;7.112;2024-02-23T15:53:44;8.70;1.00
314;DHT22;143;51.634;7.112;2024-02-23T15:56:09;8.90;1.00
314;DHT22;143;51.634;7.112;2024-02-23T15:58:35;8.70;1.00
314;DHT22;143;51.634;7.112;2024-02-23T16:01:00;8.80;1.00
314;DHT22;143;51.634;7.112;2024-02-23T16:03:26;8.60;1.00
314;DHT22;143;51.634;7.112;2024-02-23T16:05:52;8.50;1.00
314;DHT22;143;51.634;7.112;2024-02-23T16:08:17;8.80;1.00
314;DHT22;143;51.634;7.112;2024-02-23T16:10:44;8.50;1.00
314;DHT22;143;51.634;7.112;2024-02-23T16:13:09;8.30;1.00
314;DHT22;143;51.634;7.112;2024-02-23T16:15:35;8.30;1.00
314;DHT22;143;51.634;7.112;2024-02-23T16:18:01;8.10;41.70
314;DHT22;143;51.634;7.112;2024-02-23T16:20:26;7.80;99.90
314;DHT22;143;51.634;7.112;2024-02-23T16:22:52;8.00;99.90
314;DHT22;143;51.634;7.112;2024-02-23T16:25:18;7.50;99.90
314;DHT22;143;51.634;7.112;2024-02-23T16:27:43;7.60;99.90
314;DHT22;143;51.634;7.112;2024-02-23T16:30:10;7.60;99.90
314;DHT22;143;51.634;7.112;2024-02-23T16:32:36;7.40;99.90
314;DHT22;143;51.634;7.112;2024-02-23T16:35:01;7.20;99.90
314;DHT22;143;51.634;7.112;2024-02-23T16:37:29;7.30;99.90
314;DHT22;143;51.634;7.112;2024-02-23T16:39:54;7.30;99.90
314;DHT22;143;51.634;7.112;2024-02-23T16:42:20;7.30;99.90
314;DHT22;143;51.634;7.112;2024-02-23T16:44:46;7.40;99.90
314;DHT22;143;51.634;7.112;2024-02-23T16:47:12;7.30;99.90
314;DHT22;143;51.634;7.112;2024-02-23T16:49:38;7.30;99.90
314;DHT22;143;51.634;7.112;2024-02-23T16:52:04;7.20;99.90